sensor_id;sensor_type;location;lat;lon;timestamp;pressure;altitude;pressure_sealevel;temperature;humidity
54876;BME280;40764;48.472;8.166;2023-10-19T00:05:14;96569.84;;;15.32;100.00
54876;BME280;40764;48.472;8.166;2023-10-19T00:11:14;96561.91;;;15.27;100.00
54876;BME280;40764;48.472;8.166;2023-10-19T00:17:35;96553.41;;;15.35;100.00
54876;BME280;40764;48.472;8.166;2023-10-19T00:23:38;96546.94;;;15.47;100.00
54876;BME280;40764;48.472;8.166;2023-10-19T00:29:43;96544.13;;;15.43;100.00
54876;BME280;40764;48.472;8.166;2023-10-19T00:35:52;96544.06;;;15.40;100.00
54876;BME280;40764;48.472;8.166;2023-10-19T00:42:08;96548.88;;;15.46;100.00
54876;BME280;40764;48.472;8.166;2023-10-19T00:48:09;96547.28;;;15.45;100.00
54876;BME280;40764;48.472;8.166;2023-10-19T00:54:15;96535.06;;;15.43;100.00
54876;BME280;40764;48.472;8.166;2023-10-19T01:00:16;96533.28;;;15.54;100.00
54876;BME280;40764;48.472;8.166;2023-10-19T01:06:30;96528.94;;;15.53;100.00
54876;BME280;40764;48.472;8.166;2023-10-19T01:12:33;96522.31;;;15.58;100.00
54876;BME280;40764;48.472;8.166;2023-10-19T01:18:37;96520.91;;;15.64;100.00
54876;BME280;40764;48.472;8.166;2023-10-19T01:24:41;96506.09;;;15.53;100.00
54876;BME280;40764;48.472;8.166;2023-10-19T01:30:45;96501.72;;;15.48;100.00
54876;BME280;40764;48.472;8.166;2023-10-19T01:36:51;96500.59;;;15.53;100.00
54876;BME280;40764;48.472;8.166;2023-10-19T01:42:54;96491.38;;;15.41;100.00
54876;BME280;40764;48.472;8.166;2023-10-19T01:48:54;96496.25;;;15.29;100.00
54876;BME280;40764;48.472;8.166;2023-10-19T01:54:58;96479.81;;;15.09;100.00
54876;BME280;40764;48.472;8.166;2023-10-19T02:01:08;96478.59;;;15.07;100.00
54876;BME280;40764;48.472;8.166;2023-10-19T02:07:15;96482.78;;;15.01;100.00
54876;BME280;40764;48.472;8.166;2023-10-19T02:13:19;96470.78;;;14.90;100.00
54876;BME280;40764;48.472;8.166;2023-10-19T02:19:20;96465.16;;;14.82;100.00
54876;BME280;40764;48.472;8.166;2023-10-19T02:25:21;96460.09;;;14.84;100.00
54876;BME280;40764;48.472;8.166;2023-10-19T02:31:22;96449.53;;;14.86;100.00
54876;BME280;40764;48.472;8.166;2023-10-19T02:37:23;96453.44;;;14.85;100.00
54876;BME280;40764;48.472;8.166;2023-10-19T02:43:25;96442.59;;;14.73;100.00
54876;BME280;40764;48.472;8.166;2023-10-19T02:49:27;96442.19;;;14.94;100.00
54876;BME280;40764;48.472;8.166;2023-10-19T02:55:30;96433.41;;;15.08;100.00
54876;BME280;40764;48.472;8.166;2023-10-19T03:01:31;96432.00;;;15.17;100.00
54876;BME280;40764;48.472;8.166;2023-10-19T03:07:34;96434.84;;;15.25;100.00
54876;BME280;40764;48.472;8.166;2023-10-19T03:13:34;96420.97;;;15.63;100.00
54876;BME280;40764;48.472;8.166;2023-10-19T03:19:35;96430.47;;;15.69;100.00
54876;BME280;40764;48.472;8.166;2023-10-19T03:25:36;96412.72;;;15.93;100.00
54876;BME280;40764;48.472;8.166;2023-10-19T03:31:54;96410.81;;;15.97;100.00
54876;BME280;40764;48.472;8.166;2023-10-19T03:37:55;96400.00;;;15.85;100.00
54876;BME280;40764;48.472;8.166;2023-10-19T03:43:58;96398.28;;;15.73;100.00
54876;BME280;40764;48.472;8.166;2023-10-19T03:50:03;96383.84;;;15.84;100.00
54876;BME280;40764;48.472;8.166;2023-10-19T03:56:07;96381.59;;;15.63;100.00
54876;BME280;40764;48.472;8.166;2023-10-19T04:02:14;96370.94;;;15.35;100.00
54876;BME280;40764;48.472;8.166;2023-10-19T04:08:14;96376.78;;;15.07;100.00
54876;BME280;40764;48.472;8.166;2023-10-19T04:14:16;96368.41;;;14.77;100.00
54876;BME280;40764;48.472;8.166;2023-10-19T04:20:18;96374.53;;;14.90;100.00
54876;BME280;40764;48.472;8.166;2023-10-19T04:26:18;96366.22;;;14.86;100.00
54876;BME280;40764;48.472;8.166;2023-10-19T04:32:19;96366.00;;;14.98;100.00
54876;BME280;40764;48.472;8.166;2023-10-19T04:38:27;96365.03;;;14.87;100.00
54876;BME280;40764;48.472;8.166;2023-10-19T04:44:27;96363.28;;;14.75;100.00
54876;BME280;40764;48.472;8.166;2023-10-19T04:50:27;96362.16;;;14.57;100.00
54876;BME280;40764;48.472;8.166;2023-10-19T04:56:27;96355.56;;;14.42;100.00
54876;BME280;40764;48.472;8.166;2023-10-19T05:02:28;96350.91;;;14.43;100.00
54876;BME280;40764;48.472;8.166;2023-10-19T05:08:29;96357.63;;;14.45;100.00
54876;BME280;40764;48.472;8.166;2023-10-19T05:14:30;96345.31;;;14.39;100.00
54876;BME280;40764;48.472;8.166;2023-10-19T05:20:30;96353.41;;;14.32;100.00
54876;BME280;40764;48.472;8.166;2023-10-19T05:26:33;96351.56;;;14.17;100.00
54876;BME280;40764;48.472;8.166;2023-10-19T05:32:33;96335.44;;;14.15;100.00
54876;BME280;40764;48.472;8.166;2023-10-19T05:38:34;96332.78;;;14.19;100.00
54876;BME280;40764;48.472;8.166;2023-10-19T05:44:34;96327.19;;;14.15;100.00
54876;BME280;40764;48.472;8.166;2023-10-19T05:50:35;96327.06;;;14.08;100.00
54876;BME280;40764;48.472;8.166;2023-10-19T05:56:36;96337.47;;;14.18;100.00
54876;BME280;40764;48.472;8.166;2023-10-19T06:02:36;96324.78;;;14.14;100.00
54876;BME280;40764;48.472;8.166;2023-10-19T06:08:36;96327.91;;;14.12;100.00
54876;BME280;40764;48.472;8.166;2023-10-19T06:14:36;96327.03;;;14.27;100.00
54876;BME280;40764;48.472;8.166;2023-10-19T06:20:43;96325.34;;;14.42;100.00
54876;BME280;40764;48.472;8.166;2023-10-19T06:26:44;96318.91;;;14.54;100.00
54876;BME280;40764;48.472;8.166;2023-10-19T06:32:51;96319.09;;;14.65;100.00
54876;BME280;40764;48.472;8.166;2023-10-19T06:38:52;96312.41;;;14.88;100.00
54876;BME280;40764;48.472;8.166;2023-10-19T06:44:56;96312.03;;;14.90;100.00
54876;BME280;40764;48.472;8.166;2023-10-19T06:50:57;96301.38;;;15.11;100.00
54876;BME280;40764;48.472;8.166;2023-10-19T06:56:57;96300.00;;;15.25;100.00
54876;BME280;40764;48.472;8.166;2023-10-19T07:02:57;96306.03;;;15.34;100.00
54876;BME280;40764;48.472;8.166;2023-10-19T07:09:02;96302.97;;;15.39;100.00
54876;BME280;40764;48.472;8.166;2023-10-19T07:15:08;96317.09;;;15.64;100.00
54876;BME280;40764;48.472;8.166;2023-10-19T07:21:09;96315.25;;;15.75;100.00
54876;BME280;40764;48.472;8.166;2023-10-19T07:27:09;96300.03;;;15.85;100.00
54876;BME280;40764;48.472;8.166;2023-10-19T07:33:19;96305.72;;;15.99;100.00
54876;BME280;40764;48.472;8.166;2023-10-19T07:39:22;96301.25;;;16.21;100.00
54876;BME280;40764;48.472;8.166;2023-10-19T07:45:23;96295.66;;;16.51;100.00
54876;BME280;40764;48.472;8.166;2023-10-19T07:51:23;96297.28;;;16.59;100.00
54876;BME280;40764;48.472;8.166;2023-10-19T07:57:23;96291.38;;;16.57;100.00
54876;BME280;40764;48.472;8.166;2023-10-19T08:03:25;96283.59;;;16.66;100.00
54876;BME280;40764;48.472;8.166;2023-10-19T08:09:25;96274.31;;;16.88;100.00
54876;BME280;40764;48.472;8.166;2023-10-19T08:15:32;96277.28;;;17.13;100.00
54876;BME280;40764;48.472;8.166;2023-10-19T08:21:32;96282.06;;;17.27;100.00
54876;BME280;40764;48.472;8.166;2023-10-19T08:27:34;96276.66;;;17.45;100.00
54876;BME280;40764;48.472;8.166;2023-10-19T08:33:34;96266.47;;;17.59;100.00
54876;BME280;40764;48.472;8.166;2023-10-19T08:39:38;96258.72;;;17.79;100.00
54876;BME280;40764;48.472;8.166;2023-10-19T08:45:41;96247.75;;;18.04;100.00
54876;BME280;40764;48.472;8.166;2023-10-19T08:51:46;96241.88;;;18.27;100.00
54876;BME280;40764;48.472;8.166;2023-10-19T08:57:50;96248.19;;;18.31;100.00
54876;BME280;40764;48.472;8.166;2023-10-19T09:03:51;96240.28;;;18.37;100.00
54876;BME280;40764;48.472;8.166;2023-10-19T09:09:51;96248.59;;;18.44;100.00
54876;BME280;40764;48.472;8.166;2023-10-19T09:15:52;96233.19;;;18.36;100.00
54876;BME280;40764;48.472;8.166;2023-10-19T09:21:55;96232.00;;;18.33;100.00
54876;BME280;40764;48.472;8.166;2023-10-19T09:27:55;96246.63;;;18.37;100.00
54876;BME280;40764;48.472;8.166;2023-10-19T09:33:56;96248.16;;;18.10;100.00
54876;BME280;40764;48.472;8.166;2023-10-19T09:39:57;96253.66;;;18.03;100.00
54876;BME280;40764;48.472;8.166;2023-10-19T09:46:00;96274.88;;;17.70;100.00
54876;BME280;40764;48.472;8.166;2023-10-19T09:52:01;96283.78;;;17.49;100.00
54876;BME280;40764;48.472;8.166;2023-10-19T09:58:19;96279.41;;;17.38;100.00
54876;BME280;40764;48.472;8.166;2023-10-19T10:04:32;96280.44;;;17.19;100.00
54876;BME280;40764;48.472;8.166;2023-10-19T10:10:33;96275.34;;;17.21;100.00
54876;BME280;40764;48.472;8.166;2023-10-19T10:16:34;96286.75;;;17.16;100.00
54876;BME280;40764;48.472;8.166;2023-10-19T10:22:34;96262.16;;;16.96;100.00
54876;BME280;40764;48.472;8.166;2023-10-19T10:28:34;96268.50;;;17.00;100.00
54876;BME280;40764;48.472;8.166;2023-10-19T10:40:46;96209.94;;;16.70;100.00
54876;BME280;40764;48.472;8.166;2023-10-19T10:46:50;96222.91;;;16.66;100.00
54876;BME280;40764;48.472;8.166;2023-10-19T10:52:50;96214.66;;;16.69;100.00
54876;BME280;40764;48.472;8.166;2023-10-19T10:58:56;96208.88;;;16.89;100.00
54876;BME280;40764;48.472;8.166;2023-10-19T11:04:57;96193.94;;;16.93;100.00
54876;BME280;40764;48.472;8.166;2023-10-19T11:11:05;96176.69;;;17.07;100.00
54876;BME280;40764;48.472;8.166;2023-10-19T11:17:12;96166.09;;;17.20;100.00
54876;BME280;40764;48.472;8.166;2023-10-19T11:23:16;96158.66;;;17.34;100.00
54876;BME280;40764;48.472;8.166;2023-10-19T11:29:16;96168.94;;;17.38;100.00
54876;BME280;40764;48.472;8.166;2023-10-19T11:35:17;96175.22;;;17.34;100.00
54876;BME280;40764;48.472;8.166;2023-10-19T11:41:17;96176.47;;;17.48;100.00
54876;BME280;40764;48.472;8.166;2023-10-19T11:47:17;96191.88;;;17.59;100.00
54876;BME280;40764;48.472;8.166;2023-10-19T11:53:18;96183.69;;;17.77;100.00
54876;BME280;40764;48.472;8.166;2023-10-19T11:59:18;96183.13;;;17.36;100.00
54876;BME280;40764;48.472;8.166;2023-10-19T12:05:18;96186.31;;;17.42;100.00
54876;BME280;40764;48.472;8.166;2023-10-19T12:11:19;96197.38;;;17.45;100.00
54876;BME280;40764;48.472;8.166;2023-10-19T12:17:19;96199.34;;;17.45;100.00
54876;BME280;40764;48.472;8.166;2023-10-19T12:23:19;96191.00;;;17.34;100.00
54876;BME280;40764;48.472;8.166;2023-10-19T12:29:23;96185.91;;;17.36;100.00
54876;BME280;40764;48.472;8.166;2023-10-19T12:35:23;96191.03;;;17.41;100.00
54876;BME280;40764;48.472;8.166;2023-10-19T12:41:44;96173.72;;;17.51;100.00
54876;BME280;40764;48.472;8.166;2023-10-19T12:47:44;96166.59;;;17.50;100.00
54876;BME280;40764;48.472;8.166;2023-10-19T12:53:45;96170.16;;;17.44;100.00
54876;BME280;40764;48.472;8.166;2023-10-19T12:59:46;96137.81;;;17.55;100.00
54876;BME280;40764;48.472;8.166;2023-10-19T13:05:46;96132.19;;;17.30;100.00
54876;BME280;40764;48.472;8.166;2023-10-19T13:11:47;96130.25;;;17.34;100.00
54876;BME280;40764;48.472;8.166;2023-10-19T13:17:51;96122.28;;;17.11;100.00
54876;BME280;40764;48.472;8.166;2023-10-19T13:23:52;96106.16;;;17.20;100.00
54876;BME280;40764;48.472;8.166;2023-10-19T13:29:53;96094.34;;;17.27;100.00
54876;BME280;40764;48.472;8.166;2023-10-19T13:35:54;96080.53;;;17.27;100.00
54876;BME280;40764;48.472;8.166;2023-10-19T13:41:54;96058.03;;;17.18;100.00
54876;BME280;40764;48.472;8.166;2023-10-19T13:47:54;96054.06;;;17.15;100.00
54876;BME280;40764;48.472;8.166;2023-10-19T13:53:55;96043.03;;;17.19;100.00
54876;BME280;40764;48.472;8.166;2023-10-19T13:59:56;96049.34;;;17.19;100.00
54876;BME280;40764;48.472;8.166;2023-10-19T14:05:56;96032.78;;;17.09;100.00
54876;BME280;40764;48.472;8.166;2023-10-19T14:11:57;96020.97;;;17.19;100.00
54876;BME280;40764;48.472;8.166;2023-10-19T14:17:57;96008.00;;;17.44;100.00
54876;BME280;40764;48.472;8.166;2023-10-19T14:23:58;96020.22;;;17.54;100.00
54876;BME280;40764;48.472;8.166;2023-10-19T14:29:58;95990.22;;;17.34;100.00
54876;BME280;40764;48.472;8.166;2023-10-19T14:35:58;95970.50;;;17.50;100.00
54876;BME280;40764;48.472;8.166;2023-10-19T14:42:00;95974.84;;;17.55;100.00
54876;BME280;40764;48.472;8.166;2023-10-19T14:48:00;95968.53;;;17.47;100.00
54876;BME280;40764;48.472;8.166;2023-10-19T14:54:04;95942.47;;;17.27;100.00
54876;BME280;40764;48.472;8.166;2023-10-19T15:00:06;95935.78;;;17.17;100.00
54876;BME280;40764;48.472;8.166;2023-10-19T15:06:21;95942.88;;;17.08;100.00
54876;BME280;40764;48.472;8.166;2023-10-19T15:12:22;95934.19;;;17.09;100.00
54876;BME280;40764;48.472;8.166;2023-10-19T15:18:22;95929.03;;;16.93;100.00
54876;BME280;40764;48.472;8.166;2023-10-19T15:24:22;95898.63;;;16.76;100.00
54876;BME280;40764;48.472;8.166;2023-10-19T15:30:23;95904.94;;;16.72;100.00
54876;BME280;40764;48.472;8.166;2023-10-19T15:36:24;95909.66;;;16.72;100.00
54876;BME280;40764;48.472;8.166;2023-10-19T15:42:24;95908.03;;;16.60;100.00
54876;BME280;40764;48.472;8.166;2023-10-19T15:48:26;95913.53;;;16.50;100.00
54876;BME280;40764;48.472;8.166;2023-10-19T15:54:26;95898.50;;;16.43;100.00
54876;BME280;40764;48.472;8.166;2023-10-19T16:00:27;95897.72;;;16.43;100.00
54876;BME280;40764;48.472;8.166;2023-10-19T16:06:28;95882.34;;;16.35;100.00
54876;BME280;40764;48.472;8.166;2023-10-19T16:12:29;95883.09;;;16.28;100.00
54876;BME280;40764;48.472;8.166;2023-10-19T16:18:30;95888.66;;;16.39;100.00
54876;BME280;40764;48.472;8.166;2023-10-19T16:24:31;95922.53;;;16.43;100.00
54876;BME280;40764;48.472;8.166;2023-10-19T16:30:31;95904.34;;;16.21;100.00
54876;BME280;40764;48.472;8.166;2023-10-19T16:36:32;95904.69;;;16.12;100.00
54876;BME280;40764;48.472;8.166;2023-10-19T16:42:32;95925.94;;;16.15;100.00
54876;BME280;40764;48.472;8.166;2023-10-19T16:48:32;95906.63;;;16.08;100.00
54876;BME280;40764;48.472;8.166;2023-10-19T16:54:33;95903.88;;;16.04;100.00
54876;BME280;40764;48.472;8.166;2023-10-19T17:00:33;95909.00;;;16.13;100.00
54876;BME280;40764;48.472;8.166;2023-10-19T17:06:40;95922.47;;;16.25;100.00
54876;BME280;40764;48.472;8.166;2023-10-19T17:12:40;95915.69;;;16.12;100.00
54876;BME280;40764;48.472;8.166;2023-10-19T17:18:41;95907.78;;;16.00;100.00
54876;BME280;40764;48.472;8.166;2023-10-19T17:24:45;95914.06;;;15.97;100.00
54876;BME280;40764;48.472;8.166;2023-10-19T17:30:46;95894.28;;;15.84;100.00
54876;BME280;40764;48.472;8.166;2023-10-19T17:36:49;95873.06;;;15.85;100.00
54876;BME280;40764;48.472;8.166;2023-10-19T17:42:50;95860.47;;;15.87;100.00
54876;BME280;40764;48.472;8.166;2023-10-19T17:48:51;95854.22;;;15.94;100.00
54876;BME280;40764;48.472;8.166;2023-10-19T17:54:52;95859.72;;;15.90;100.00
54876;BME280;40764;48.472;8.166;2023-10-19T18:00:52;95836.84;;;15.86;100.00
54876;BME280;40764;48.472;8.166;2023-10-19T18:06:52;95837.59;;;15.79;100.00
54876;BME280;40764;48.472;8.166;2023-10-19T18:12:53;95836.00;;;15.71;100.00
54876;BME280;40764;48.472;8.166;2023-10-19T18:18:54;95835.22;;;15.71;100.00
54876;BME280;40764;48.472;8.166;2023-10-19T18:24:54;95836.81;;;15.79;100.00
54876;BME280;40764;48.472;8.166;2023-10-19T18:30:55;95837.59;;;15.72;100.00
54876;BME280;40764;48.472;8.166;2023-10-19T18:36:57;95829.22;;;15.58;100.00
54876;BME280;40764;48.472;8.166;2023-10-19T18:42:59;95820.53;;;15.56;100.00
54876;BME280;40764;48.472;8.166;2023-10-19T18:48:59;95803.69;;;15.61;100.00
54876;BME280;40764;48.472;8.166;2023-10-19T18:55:00;95799.81;;;15.76;100.00
54876;BME280;40764;48.472;8.166;2023-10-19T19:01:01;95793.53;;;15.76;100.00
54876;BME280;40764;48.472;8.166;2023-10-19T19:07:02;95793.13;;;15.70;100.00
54876;BME280;40764;48.472;8.166;2023-10-19T19:13:02;95786.81;;;15.70;100.00
54876;BME280;40764;48.472;8.166;2023-10-19T19:19:02;95784.47;;;15.72;100.00
54876;BME280;40764;48.472;8.166;2023-10-19T19:25:03;95773.41;;;15.61;100.00
54876;BME280;40764;48.472;8.166;2023-10-19T19:31:03;95755.28;;;15.60;100.00
54876;BME280;40764;48.472;8.166;2023-10-19T19:37:04;95713.25;;;15.67;100.00
54876;BME280;40764;48.472;8.166;2023-10-19T19:43:04;95705.00;;;15.74;100.00
54876;BME280;40764;48.472;8.166;2023-10-19T19:49:04;95693.66;;;15.93;100.00
54876;BME280;40764;48.472;8.166;2023-10-19T19:55:06;95680.31;;;16.24;100.00
54876;BME280;40764;48.472;8.166;2023-10-19T20:01:10;95669.69;;;16.29;100.00
54876;BME280;40764;48.472;8.166;2023-10-19T20:07:10;95685.44;;;16.22;100.00
54876;BME280;40764;48.472;8.166;2023-10-19T20:13:13;95700.38;;;16.14;100.00
54876;BME280;40764;48.472;8.166;2023-10-19T20:19:14;95701.53;;;16.13;100.00
54876;BME280;40764;48.472;8.166;2023-10-19T20:25:16;95698.00;;;16.05;100.00
54876;BME280;40764;48.472;8.166;2023-10-19T20:31:16;95668.84;;;15.93;100.00
54876;BME280;40764;48.472;8.166;2023-10-19T20:37:16;95659.03;;;15.92;100.00
54876;BME280;40764;48.472;8.166;2023-10-19T20:43:17;95655.03;;;15.83;100.00
54876;BME280;40764;48.472;8.166;2023-10-19T20:49:18;95658.19;;;15.70;100.00
54876;BME280;40764;48.472;8.166;2023-10-19T20:55:19;95634.56;;;15.62;100.00
54876;BME280;40764;48.472;8.166;2023-10-19T21:01:20;95622.72;;;15.58;100.00
54876;BME280;40764;48.472;8.166;2023-10-19T21:07:21;95626.22;;;15.52;100.00
54876;BME280;40764;48.472;8.166;2023-10-19T21:13:21;95604.56;;;15.39;100.00
54876;BME280;40764;48.472;8.166;2023-10-19T21:19:21;95602.63;;;15.43;100.00
54876;BME280;40764;48.472;8.166;2023-10-19T21:25:22;95584.13;;;15.33;100.00
54876;BME280;40764;48.472;8.166;2023-10-19T21:31:22;95572.72;;;15.35;100.00
54876;BME280;40764;48.472;8.166;2023-10-19T21:37:22;95574.63;;;15.27;100.00
54876;BME280;40764;48.472;8.166;2023-10-19T21:43:24;95574.28;;;15.39;100.00
54876;BME280;40764;48.472;8.166;2023-10-19T21:49:24;95542.84;;;15.44;100.00
54876;BME280;40764;48.472;8.166;2023-10-19T21:55:24;95532.25;;;15.60;100.00
54876;BME280;40764;48.472;8.166;2023-10-19T22:01:25;95530.72;;;15.63;100.00
54876;BME280;40764;48.472;8.166;2023-10-19T22:07:28;95525.94;;;15.45;100.00
54876;BME280;40764;48.472;8.166;2023-10-19T22:13:28;95512.97;;;15.42;100.00
54876;BME280;40764;48.472;8.166;2023-10-19T22:19:30;95511.00;;;15.46;100.00
54876;BME280;40764;48.472;8.166;2023-10-19T22:25:31;95505.47;;;15.36;100.00
54876;BME280;40764;48.472;8.166;2023-10-19T22:31:32;95512.94;;;15.35;100.00
54876;BME280;40764;48.472;8.166;2023-10-19T22:37:33;95500.34;;;15.31;100.00
54876;BME280;40764;48.472;8.166;2023-10-19T22:43:33;95494.44;;;15.32;100.00
54876;BME280;40764;48.472;8.166;2023-10-19T22:49:35;95479.53;;;15.44;100.00
54876;BME280;40764;48.472;8.166;2023-10-19T22:55:36;95472.47;;;15.36;100.00
54876;BME280;40764;48.472;8.166;2023-10-19T23:01:37;95468.91;;;15.39;100.00
54876;BME280;40764;48.472;8.166;2023-10-19T23:07:38;95472.06;;;15.44;100.00
54876;BME280;40764;48.472;8.166;2023-10-19T23:13:39;95447.25;;;15.27;100.00
54876;BME280;40764;48.472;8.166;2023-10-19T23:19:42;95450.03;;;15.30;100.00
54876;BME280;40764;48.472;8.166;2023-10-19T23:25:45;95447.28;;;15.44;100.00
54876;BME280;40764;48.472;8.166;2023-10-19T23:31:52;95443.38;;;15.38;100.00
54876;BME280;40764;48.472;8.166;2023-10-19T23:37:52;95446.47;;;15.23;100.00
54876;BME280;40764;48.472;8.166;2023-10-19T23:43:52;95429.97;;;15.23;100.00
54876;BME280;40764;48.472;8.166;2023-10-19T23:49:54;95432.72;;;15.26;100.00
54876;BME280;40764;48.472;8.166;2023-10-19T23:55:55;95396.56;;;15.17;100.00
